sensor_id;sensor_type;location;lat;lon;timestamp;P1;durP1;ratioP1;P2;durP2;ratioP2
57824;SDS011;43912;44.188;21.094;2022-07-06T00:02:11;14.25;;;12.68;;
57824;SDS011;43912;44.188;21.094;2022-07-06T00:04:37;15.50;;;13.52;;
57824;SDS011;43912;44.188;21.094;2022-07-06T00:07:03;16.42;;;13.32;;
57824;SDS011;43912;44.188;21.094;2022-07-06T00:09:30;17.25;;;14.13;;
57824;SDS011;43912;44.188;21.094;2022-07-06T00:11:56;17.00;;;13.45;;
57824;SDS011;43912;44.188;21.094;2022-07-06T00:14:22;17.63;;;13.85;;
57824;SDS011;43912;44.188;21.094;2022-07-06T00:16:49;17.90;;;13.50;;
57824;SDS011;43912;44.188;21.094;2022-07-06T00:19:15;16.15;;;13.18;;
57824;SDS011;43912;44.188;21.094;2022-07-06T00:21:41;15.82;;;13.57;;
57824;SDS011;43912;44.188;21.094;2022-07-06T00:24:09;16.40;;;13.45;;
57824;SDS011;43912;44.188;21.094;2022-07-06T00:26:35;16.80;;;14.15;;
57824;SDS011;43912;44.188;21.094;2022-07-06T00:29:02;18.60;;;14.57;;
57824;SDS011;43912;44.188;21.094;2022-07-06T00:31:29;17.15;;;14.68;;
57824;SDS011;43912;44.188;21.094;2022-07-06T00:33:55;18.50;;;15.02;;
57824;SDS011;43912;44.188;21.094;2022-07-06T00:36:21;18.23;;;15.13;;
57824;SDS011;43912;44.188;21.094;2022-07-06T00:38:47;15.90;;;14.20;;
57824;SDS011;43912;44.188;21.094;2022-07-06T00:41:13;18.25;;;15.20;;
57824;SDS011;43912;44.188;21.094;2022-07-06T00:43:53;19.50;;;14.50;;
57824;SDS011;43912;44.188;21.094;2022-07-06T00:46:22;20.20;;;15.93;;
57824;SDS011;43912;44.188;21.094;2022-07-06T00:48:48;18.65;;;15.32;;
57824;SDS011;43912;44.188;21.094;2022-07-06T00:51:14;17.77;;;14.55;;
57824;SDS011;43912;44.188;21.094;2022-07-06T00:53:41;18.48;;;15.55;;
57824;SDS011;43912;44.188;21.094;2022-07-06T00:56:08;25.42;;;15.20;;
57824;SDS011;43912;44.188;21.094;2022-07-06T00:58:35;19.00;;;15.73;;
57824;SDS011;43912;44.188;21.094;2022-07-06T01:01:01;19.17;;;15.50;;
57824;SDS011;43912;44.188;21.094;2022-07-06T01:03:27;22.15;;;16.10;;
57824;SDS011;43912;44.188;21.094;2022-07-06T01:05:53;19.35;;;15.25;;
57824;SDS011;43912;44.188;21.094;2022-07-06T01:08:20;18.67;;;15.13;;
57824;SDS011;43912;44.188;21.094;2022-07-06T01:10:46;18.48;;;14.93;;
57824;SDS011;43912;44.188;21.094;2022-07-06T01:13:12;21.02;;;16.63;;
57824;SDS011;43912;44.188;21.094;2022-07-06T01:15:38;19.15;;;15.40;;
57824;SDS011;43912;44.188;21.094;2022-07-06T01:18:04;20.55;;;16.63;;
57824;SDS011;43912;44.188;21.094;2022-07-06T01:20:30;18.05;;;16.13;;
57824;SDS011;43912;44.188;21.094;2022-07-06T01:22:58;18.92;;;15.02;;
57824;SDS011;43912;44.188;21.094;2022-07-06T01:25:24;21.63;;;15.93;;
57824;SDS011;43912;44.188;21.094;2022-07-06T01:27:51;18.77;;;14.80;;
57824;SDS011;43912;44.188;21.094;2022-07-06T01:30:17;20.55;;;14.77;;
57824;SDS011;43912;44.188;21.094;2022-07-06T01:32:44;18.38;;;14.13;;
57824;SDS011;43912;44.188;21.094;2022-07-06T01:35:11;17.00;;;14.07;;
57824;SDS011;43912;44.188;21.094;2022-07-06T01:37:37;16.20;;;14.18;;
57824;SDS011;43912;44.188;21.094;2022-07-06T01:40:04;14.60;;;12.40;;
57824;SDS011;43912;44.188;21.094;2022-07-06T01:42:31;18.25;;;12.73;;
57824;SDS011;43912;44.188;21.094;2022-07-06T01:44:57;14.45;;;11.25;;
57824;SDS011;43912;44.188;21.094;2022-07-06T01:47:24;15.00;;;11.95;;
57824;SDS011;43912;44.188;21.094;2022-07-06T01:49:50;15.02;;;10.65;;
57824;SDS011;43912;44.188;21.094;2022-07-06T01:52:16;15.05;;;11.07;;
57824;SDS011;43912;44.188;21.094;2022-07-06T01:54:42;14.45;;;10.77;;
57824;SDS011;43912;44.188;21.094;2022-07-06T01:57:09;15.00;;;11.02;;
57824;SDS011;43912;44.188;21.094;2022-07-06T01:59:35;13.10;;;11.00;;
57824;SDS011;43912;44.188;21.094;2022-07-06T02:02:01;13.38;;;10.85;;
57824;SDS011;43912;44.188;21.094;2022-07-06T02:04:27;12.40;;;11.02;;
57824;SDS011;43912;44.188;21.094;2022-07-06T02:06:53;15.35;;;11.07;;
57824;SDS011;43912;44.188;21.094;2022-07-06T02:09:19;16.98;;;11.18;;
57824;SDS011;43912;44.188;21.094;2022-07-06T02:11:45;14.77;;;11.35;;
57824;SDS011;43912;44.188;21.094;2022-07-06T02:14:11;14.55;;;11.18;;
57824;SDS011;43912;44.188;21.094;2022-07-06T02:16:37;12.65;;;11.13;;
57824;SDS011;43912;44.188;21.094;2022-07-06T02:19:03;18.67;;;11.23;;
57824;SDS011;43912;44.188;21.094;2022-07-06T02:21:30;13.05;;;10.57;;
57824;SDS011;43912;44.188;21.094;2022-07-06T02:23:56;13.32;;;10.10;;
57824;SDS011;43912;44.188;21.094;2022-07-06T02:26:22;13.32;;;11.10;;
57824;SDS011;43912;44.188;21.094;2022-07-06T02:28:48;19.90;;;11.80;;
57824;SDS011;43912;44.188;21.094;2022-07-06T02:31:14;14.90;;;10.95;;
57824;SDS011;43912;44.188;21.094;2022-07-06T02:33:40;15.98;;;11.27;;
57824;SDS011;43912;44.188;21.094;2022-07-06T02:36:07;15.35;;;11.75;;
57824;SDS011;43912;44.188;21.094;2022-07-06T02:38:33;15.07;;;11.70;;
57824;SDS011;43912;44.188;21.094;2022-07-06T02:40:59;13.75;;;11.00;;
57824;SDS011;43912;44.188;21.094;2022-07-06T02:43:25;13.98;;;10.68;;
57824;SDS011;43912;44.188;21.094;2022-07-06T02:45:51;17.25;;;11.65;;
57824;SDS011;43912;44.188;21.094;2022-07-06T02:48:18;17.25;;;11.27;;
57824;SDS011;43912;44.188;21.094;2022-07-06T02:50:46;14.10;;;11.25;;
57824;SDS011;43912;44.188;21.094;2022-07-06T02:53:12;16.50;;;11.38;;
57824;SDS011;43912;44.188;21.094;2022-07-06T02:55:38;15.13;;;11.60;;
57824;SDS011;43912;44.188;21.094;2022-07-06T02:58:04;15.95;;;11.05;;
57824;SDS011;43912;44.188;21.094;2022-07-06T03:00:30;14.40;;;11.52;;
57824;SDS011;43912;44.188;21.094;2022-07-06T03:02:56;14.80;;;11.82;;
57824;SDS011;43912;44.188;21.094;2022-07-06T03:05:24;12.40;;;10.38;;
57824;SDS011;43912;44.188;21.094;2022-07-06T03:07:50;14.20;;;9.82;;
57824;SDS011;43912;44.188;21.094;2022-07-06T03:10:16;14.05;;;10.98;;
57824;SDS011;43912;44.188;21.094;2022-07-06T03:12:42;17.35;;;10.93;;
57824;SDS011;43912;44.188;21.094;2022-07-06T03:15:08;17.27;;;10.93;;
57824;SDS011;43912;44.188;21.094;2022-07-06T03:17:35;15.48;;;10.57;;
57824;SDS011;43912;44.188;21.094;2022-07-06T03:20:02;12.68;;;9.30;;
57824;SDS011;43912;44.188;21.094;2022-07-06T03:22:28;14.43;;;9.20;;
57824;SDS011;43912;44.188;21.094;2022-07-06T03:24:54;13.75;;;8.55;;
57824;SDS011;43912;44.188;21.094;2022-07-06T03:27:20;13.38;;;9.05;;
57824;SDS011;43912;44.188;21.094;2022-07-06T03:29:47;11.10;;;8.32;;
57824;SDS011;43912;44.188;21.094;2022-07-06T03:32:13;12.07;;;7.70;;
57824;SDS011;43912;44.188;21.094;2022-07-06T03:34:39;11.00;;;7.10;;
57824;SDS011;43912;44.188;21.094;2022-07-06T03:37:05;14.13;;;7.15;;
57824;SDS011;43912;44.188;21.094;2022-07-06T03:39:31;11.82;;;6.65;;
57824;SDS011;43912;44.188;21.094;2022-07-06T03:41:57;12.00;;;7.18;;
57824;SDS011;43912;44.188;21.094;2022-07-06T03:44:23;11.23;;;6.07;;
57824;SDS011;43912;44.188;21.094;2022-07-06T03:46:50;12.05;;;5.50;;
57824;SDS011;43912;44.188;21.094;2022-07-06T03:49:17;8.90;;;5.55;;
57824;SDS011;43912;44.188;21.094;2022-07-06T03:51:44;9.68;;;5.75;;
57824;SDS011;43912;44.188;21.094;2022-07-06T03:54:10;10.25;;;5.53;;
57824;SDS011;43912;44.188;21.094;2022-07-06T03:56:36;8.88;;;4.70;;
57824;SDS011;43912;44.188;21.094;2022-07-06T03:59:03;10.65;;;5.18;;
57824;SDS011;43912;44.188;21.094;2022-07-06T04:01:29;9.13;;;5.00;;
57824;SDS011;43912;44.188;21.094;2022-07-06T04:03:56;9.85;;;4.78;;
57824;SDS011;43912;44.188;21.094;2022-07-06T04:06:22;9.18;;;4.53;;
57824;SDS011;43912;44.188;21.094;2022-07-06T04:08:48;9.82;;;4.80;;
57824;SDS011;43912;44.188;21.094;2022-07-06T04:11:14;8.38;;;4.60;;
57824;SDS011;43912;44.188;21.094;2022-07-06T04:13:40;9.38;;;5.10;;
57824;SDS011;43912;44.188;21.094;2022-07-06T04:16:06;9.40;;;5.10;;
57824;SDS011;43912;44.188;21.094;2022-07-06T04:18:33;10.25;;;4.40;;
57824;SDS011;43912;44.188;21.094;2022-07-06T04:20:59;10.98;;;4.93;;
57824;SDS011;43912;44.188;21.094;2022-07-06T04:23:25;9.15;;;4.75;;
57824;SDS011;43912;44.188;21.094;2022-07-06T04:25:51;8.25;;;4.35;;
57824;SDS011;43912;44.188;21.094;2022-07-06T04:28:17;8.25;;;5.10;;
57824;SDS011;43912;44.188;21.094;2022-07-06T04:30:43;10.93;;;4.97;;
57824;SDS011;43912;44.188;21.094;2022-07-06T04:33:10;9.45;;;4.53;;
57824;SDS011;43912;44.188;21.094;2022-07-06T04:35:36;9.95;;;4.90;;
57824;SDS011;43912;44.188;21.094;2022-07-06T04:38:02;8.95;;;5.10;;
57824;SDS011;43912;44.188;21.094;2022-07-06T04:40:28;8.70;;;4.90;;
57824;SDS011;43912;44.188;21.094;2022-07-06T04:42:54;11.25;;;4.57;;
57824;SDS011;43912;44.188;21.094;2022-07-06T04:45:20;8.75;;;4.68;;
57824;SDS011;43912;44.188;21.094;2022-07-06T04:47:46;8.15;;;4.20;;
57824;SDS011;43912;44.188;21.094;2022-07-06T04:50:12;7.88;;;4.32;;
57824;SDS011;43912;44.188;21.094;2022-07-06T04:52:38;9.13;;;4.68;;
57824;SDS011;43912;44.188;21.094;2022-07-06T04:55:05;13.60;;;8.88;;
57824;SDS011;43912;44.188;21.094;2022-07-06T04:57:31;11.27;;;5.28;;
57824;SDS011;43912;44.188;21.094;2022-07-06T04:59:57;7.68;;;4.28;;
57824;SDS011;43912;44.188;21.094;2022-07-06T05:02:23;8.50;;;4.10;;
57824;SDS011;43912;44.188;21.094;2022-07-06T05:04:50;8.00;;;4.78;;
57824;SDS011;43912;44.188;21.094;2022-07-06T05:07:16;7.25;;;5.97;;
57824;SDS011;43912;44.188;21.094;2022-07-06T05:09:42;9.13;;;4.47;;
57824;SDS011;43912;44.188;21.094;2022-07-06T05:12:08;8.98;;;5.03;;
57824;SDS011;43912;44.188;21.094;2022-07-06T05:14:34;8.10;;;3.10;;
57824;SDS011;43912;44.188;21.094;2022-07-06T05:17:01;9.20;;;4.82;;
57824;SDS011;43912;44.188;21.094;2022-07-06T05:19:27;9.30;;;5.22;;
57824;SDS011;43912;44.188;21.094;2022-07-06T05:21:53;8.85;;;3.13;;
57824;SDS011;43912;44.188;21.094;2022-07-06T05:24:19;7.60;;;3.05;;
57824;SDS011;43912;44.188;21.094;2022-07-06T05:26:45;7.65;;;3.15;;
57824;SDS011;43912;44.188;21.094;2022-07-06T05:29:11;7.63;;;3.20;;
57824;SDS011;43912;44.188;21.094;2022-07-06T05:31:37;7.78;;;3.22;;
57824;SDS011;43912;44.188;21.094;2022-07-06T05:34:04;7.28;;;3.28;;
57824;SDS011;43912;44.188;21.094;2022-07-06T05:36:30;8.43;;;3.47;;
57824;SDS011;43912;44.188;21.094;2022-07-06T05:38:56;7.28;;;5.00;;
57824;SDS011;43912;44.188;21.094;2022-07-06T05:41:22;6.88;;;4.50;;
57824;SDS011;43912;44.188;21.094;2022-07-06T05:43:48;7.78;;;4.63;;
57824;SDS011;43912;44.188;21.094;2022-07-06T05:46:14;8.82;;;4.28;;
57824;SDS011;43912;44.188;21.094;2022-07-06T05:48:40;8.00;;;4.45;;
57824;SDS011;43912;44.188;21.094;2022-07-06T05:51:25;9.23;;;4.78;;
57824;SDS011;43912;44.188;21.094;2022-07-06T05:53:51;8.45;;;3.30;;
57824;SDS011;43912;44.188;21.094;2022-07-06T05:56:17;7.00;;;3.10;;
57824;SDS011;43912;44.188;21.094;2022-07-06T05:58:43;8.40;;;2.90;;
57824;SDS011;43912;44.188;21.094;2022-07-06T06:01:09;7.97;;;3.05;;
57824;SDS011;43912;44.188;21.094;2022-07-06T06:03:36;7.93;;;3.05;;
57824;SDS011;43912;44.188;21.094;2022-07-06T06:06:02;6.75;;;3.55;;
57824;SDS011;43912;44.188;21.094;2022-07-06T06:08:28;9.27;;;3.97;;
57824;SDS011;43912;44.188;21.094;2022-07-06T06:10:54;7.53;;;3.15;;
57824;SDS011;43912;44.188;21.094;2022-07-06T06:13:20;7.15;;;3.25;;
57824;SDS011;43912;44.188;21.094;2022-07-06T06:15:46;8.48;;;3.00;;
57824;SDS011;43912;44.188;21.094;2022-07-06T06:18:12;7.75;;;3.33;;
57824;SDS011;43912;44.188;21.094;2022-07-06T06:20:41;7.75;;;3.17;;
57824;SDS011;43912;44.188;21.094;2022-07-06T06:23:07;8.18;;;3.10;;
57824;SDS011;43912;44.188;21.094;2022-07-06T06:25:35;7.22;;;3.45;;
57824;SDS011;43912;44.188;21.094;2022-07-06T06:28:02;8.65;;;4.07;;
57824;SDS011;43912;44.188;21.094;2022-07-06T06:30:28;8.63;;;4.10;;
57824;SDS011;43912;44.188;21.094;2022-07-06T06:33:11;7.97;;;3.20;;
57824;SDS011;43912;44.188;21.094;2022-07-06T06:35:38;6.53;;;3.88;;
57824;SDS011;43912;44.188;21.094;2022-07-06T06:38:04;6.55;;;2.88;;
57824;SDS011;43912;44.188;21.094;2022-07-06T06:40:30;12.15;;;3.42;;
57824;SDS011;43912;44.188;21.094;2022-07-06T06:42:56;7.95;;;4.03;;
57824;SDS011;43912;44.188;21.094;2022-07-06T06:45:22;5.93;;;2.80;;
57824;SDS011;43912;44.188;21.094;2022-07-06T06:47:49;6.85;;;3.78;;
57824;SDS011;43912;44.188;21.094;2022-07-06T06:50:15;6.78;;;3.42;;
57824;SDS011;43912;44.188;21.094;2022-07-06T06:52:41;8.65;;;3.95;;
57824;SDS011;43912;44.188;21.094;2022-07-06T06:55:07;7.10;;;2.50;;
57824;SDS011;43912;44.188;21.094;2022-07-06T06:57:33;6.63;;;3.45;;
57824;SDS011;43912;44.188;21.094;2022-07-06T06:59:59;10.75;;;3.50;;
57824;SDS011;43912;44.188;21.094;2022-07-06T07:02:26;8.18;;;3.60;;
57824;SDS011;43912;44.188;21.094;2022-07-06T07:04:52;7.82;;;3.15;;
57824;SDS011;43912;44.188;21.094;2022-07-06T07:07:18;9.13;;;3.20;;
57824;SDS011;43912;44.188;21.094;2022-07-06T07:09:44;6.45;;;2.38;;
57824;SDS011;43912;44.188;21.094;2022-07-06T07:12:10;6.55;;;2.70;;
57824;SDS011;43912;44.188;21.094;2022-07-06T07:14:37;6.40;;;2.35;;
57824;SDS011;43912;44.188;21.094;2022-07-06T07:17:03;6.38;;;2.70;;
57824;SDS011;43912;44.188;21.094;2022-07-06T07:19:29;6.32;;;3.22;;
57824;SDS011;43912;44.188;21.094;2022-07-06T07:21:55;7.65;;;2.28;;
57824;SDS011;43912;44.188;21.094;2022-07-06T07:24:21;7.43;;;2.42;;
57824;SDS011;43912;44.188;21.094;2022-07-06T07:26:47;5.90;;;2.08;;
57824;SDS011;43912;44.188;21.094;2022-07-06T07:29:14;7.40;;;2.72;;
57824;SDS011;43912;44.188;21.094;2022-07-06T07:31:40;6.40;;;2.50;;
57824;SDS011;43912;44.188;21.094;2022-07-06T07:34:06;7.30;;;3.13;;
57824;SDS011;43912;44.188;21.094;2022-07-06T07:36:32;6.05;;;3.00;;
57824;SDS011;43912;44.188;21.094;2022-07-06T07:38:58;6.35;;;2.78;;
57824;SDS011;43912;44.188;21.094;2022-07-06T07:41:24;7.60;;;2.60;;
57824;SDS011;43912;44.188;21.094;2022-07-06T07:43:50;5.32;;;2.60;;
57824;SDS011;43912;44.188;21.094;2022-07-06T07:46:16;6.07;;;2.80;;
57824;SDS011;43912;44.188;21.094;2022-07-06T07:48:42;5.40;;;2.92;;
57824;SDS011;43912;44.188;21.094;2022-07-06T07:51:08;5.97;;;2.90;;
57824;SDS011;43912;44.188;21.094;2022-07-06T07:53:34;5.72;;;2.50;;
57824;SDS011;43912;44.188;21.094;2022-07-06T07:56:00;6.93;;;2.88;;
57824;SDS011;43912;44.188;21.094;2022-07-06T07:58:27;5.78;;;2.72;;
57824;SDS011;43912;44.188;21.094;2022-07-06T08:00:53;7.07;;;2.50;;
57824;SDS011;43912;44.188;21.094;2022-07-06T08:03:19;6.90;;;2.60;;
57824;SDS011;43912;44.188;21.094;2022-07-06T08:05:45;5.63;;;2.30;;
57824;SDS011;43912;44.188;21.094;2022-07-06T08:08:13;6.45;;;2.20;;
57824;SDS011;43912;44.188;21.094;2022-07-06T08:10:39;6.07;;;2.13;;
57824;SDS011;43912;44.188;21.094;2022-07-06T08:13:05;5.68;;;1.88;;
57824;SDS011;43912;44.188;21.094;2022-07-06T08:15:32;5.25;;;2.00;;
57824;SDS011;43912;44.188;21.094;2022-07-06T08:17:59;8.07;;;2.30;;
57824;SDS011;43912;44.188;21.094;2022-07-06T08:20:25;6.90;;;2.30;;
57824;SDS011;43912;44.188;21.094;2022-07-06T08:22:51;6.20;;;1.95;;
57824;SDS011;43912;44.188;21.094;2022-07-06T08:25:17;5.70;;;1.90;;
57824;SDS011;43912;44.188;21.094;2022-07-06T08:27:44;5.15;;;1.60;;
57824;SDS011;43912;44.188;21.094;2022-07-06T08:30:10;4.90;;;1.55;;
57824;SDS011;43912;44.188;21.094;2022-07-06T08:32:37;7.75;;;1.50;;
57824;SDS011;43912;44.188;21.094;2022-07-06T08:35:04;5.35;;;1.65;;
57824;SDS011;43912;44.188;21.094;2022-07-06T08:37:30;5.35;;;1.70;;
57824;SDS011;43912;44.188;21.094;2022-07-06T08:39:56;6.20;;;1.52;;
57824;SDS011;43912;44.188;21.094;2022-07-06T08:42:22;5.45;;;1.70;;
57824;SDS011;43912;44.188;21.094;2022-07-06T08:44:50;5.15;;;1.40;;
57824;SDS011;43912;44.188;21.094;2022-07-06T08:47:16;6.38;;;1.73;;
57824;SDS011;43912;44.188;21.094;2022-07-06T08:49:43;5.10;;;1.70;;
57824;SDS011;43912;44.188;21.094;2022-07-06T08:52:10;8.15;;;2.53;;
57824;SDS011;43912;44.188;21.094;2022-07-06T08:54:37;7.95;;;1.85;;
57824;SDS011;43912;44.188;21.094;2022-07-06T08:57:04;7.38;;;2.00;;
57824;SDS011;43912;44.188;21.094;2022-07-06T08:59:30;5.75;;;2.03;;
57824;SDS011;43912;44.188;21.094;2022-07-06T09:01:57;4.85;;;1.52;;
57824;SDS011;43912;44.188;21.094;2022-07-06T09:04:25;8.38;;;1.77;;
57824;SDS011;43912;44.188;21.094;2022-07-06T09:06:51;5.43;;;1.70;;
57824;SDS011;43912;44.188;21.094;2022-07-06T09:09:21;6.82;;;2.00;;
57824;SDS011;43912;44.188;21.094;2022-07-06T09:11:48;5.90;;;1.73;;
57824;SDS011;43912;44.188;21.094;2022-07-06T09:14:14;5.38;;;1.60;;
57824;SDS011;43912;44.188;21.094;2022-07-06T09:16:40;6.78;;;1.92;;
57824;SDS011;43912;44.188;21.094;2022-07-06T09:19:07;5.20;;;2.00;;
57824;SDS011;43912;44.188;21.094;2022-07-06T09:21:34;5.93;;;1.60;;
57824;SDS011;43912;44.188;21.094;2022-07-06T09:24:02;5.60;;;1.60;;
57824;SDS011;43912;44.188;21.094;2022-07-06T09:26:28;4.45;;;1.40;;
57824;SDS011;43912;44.188;21.094;2022-07-06T09:28:55;6.18;;;1.45;;
57824;SDS011;43912;44.188;21.094;2022-07-06T09:31:22;7.57;;;1.60;;
57824;SDS011;43912;44.188;21.094;2022-07-06T09:33:59;6.05;;;1.58;;
57824;SDS011;43912;44.188;21.094;2022-07-06T09:36:40;8.50;;;1.60;;
57824;SDS011;43912;44.188;21.094;2022-07-06T09:39:16;5.25;;;1.63;;
57824;SDS011;43912;44.188;21.094;2022-07-06T09:41:43;6.13;;;1.63;;
57824;SDS011;43912;44.188;21.094;2022-07-06T09:44:09;6.55;;;1.60;;
57824;SDS011;43912;44.188;21.094;2022-07-06T09:46:42;6.55;;;1.52;;
57824;SDS011;43912;44.188;21.094;2022-07-06T09:49:09;5.85;;;1.30;;
57824;SDS011;43912;44.188;21.094;2022-07-06T09:51:36;5.63;;;1.80;;
57824;SDS011;43912;44.188;21.094;2022-07-06T09:54:05;4.70;;;1.40;;
57824;SDS011;43912;44.188;21.094;2022-07-06T09:56:39;6.75;;;1.58;;
57824;SDS011;43912;44.188;21.094;2022-07-06T09:59:11;6.03;;;1.40;;
57824;SDS011;43912;44.188;21.094;2022-07-06T10:01:38;8.30;;;1.40;;
57824;SDS011;43912;44.188;21.094;2022-07-06T10:04:05;6.25;;;1.35;;
57824;SDS011;43912;44.188;21.094;2022-07-06T10:06:32;4.97;;;1.40;;
57824;SDS011;43912;44.188;21.094;2022-07-06T10:08:58;4.35;;;1.10;;
57824;SDS011;43912;44.188;21.094;2022-07-06T10:11:25;4.60;;;1.30;;
57824;SDS011;43912;44.188;21.094;2022-07-06T10:13:55;5.47;;;1.17;;
57824;SDS011;43912;44.188;21.094;2022-07-06T10:16:25;6.30;;;1.73;;
57824;SDS011;43912;44.188;21.094;2022-07-06T10:18:52;6.35;;;1.50;;
57824;SDS011;43912;44.188;21.094;2022-07-06T10:21:24;4.88;;;1.20;;
57824;SDS011;43912;44.188;21.094;2022-07-06T10:23:50;6.25;;;1.40;;
57824;SDS011;43912;44.188;21.094;2022-07-06T10:26:17;7.43;;;1.40;;
57824;SDS011;43912;44.188;21.094;2022-07-06T10:28:44;5.43;;;1.20;;
57824;SDS011;43912;44.188;21.094;2022-07-06T10:31:13;7.60;;;1.75;;
57824;SDS011;43912;44.188;21.094;2022-07-06T10:33:39;4.80;;;1.15;;
57824;SDS011;43912;44.188;21.094;2022-07-06T10:36:07;4.95;;;1.23;;
57824;SDS011;43912;44.188;21.094;2022-07-06T10:38:34;6.72;;;1.30;;
57824;SDS011;43912;44.188;21.094;2022-07-06T10:41:09;4.57;;;1.20;;
57824;SDS011;43912;44.188;21.094;2022-07-06T10:46:05;6.93;;;1.27;;
57824;SDS011;43912;44.188;21.094;2022-07-06T10:48:34;6.05;;;1.33;;
57824;SDS011;43912;44.188;21.094;2022-07-06T10:51:01;7.80;;;1.50;;
57824;SDS011;43912;44.188;21.094;2022-07-06T10:53:36;5.85;;;1.20;;
57824;SDS011;43912;44.188;21.094;2022-07-06T11:01:13;6.32;;;1.42;;
57824;SDS011;43912;44.188;21.094;2022-07-06T11:03:40;4.95;;;1.20;;
57824;SDS011;43912;44.188;21.094;2022-07-06T11:13:48;6.40;;;1.60;;
57824;SDS011;43912;44.188;21.094;2022-07-06T11:16:15;7.05;;;1.85;;
57824;SDS011;43912;44.188;21.094;2022-07-06T11:18:45;6.90;;;2.42;;
57824;SDS011;43912;44.188;21.094;2022-07-06T11:21:15;5.30;;;1.70;;
57824;SDS011;43912;44.188;21.094;2022-07-06T11:23:42;8.40;;;1.83;;
57824;SDS011;43912;44.188;21.094;2022-07-06T11:26:09;5.15;;;1.70;;
57824;SDS011;43912;44.188;21.094;2022-07-06T11:28:36;6.15;;;1.83;;
57824;SDS011;43912;44.188;21.094;2022-07-06T11:31:03;5.10;;;1.77;;
57824;SDS011;43912;44.188;21.094;2022-07-06T11:33:29;5.93;;;1.90;;
57824;SDS011;43912;44.188;21.094;2022-07-06T11:38:40;6.25;;;1.88;;
57824;SDS011;43912;44.188;21.094;2022-07-06T11:41:07;7.20;;;2.10;;
57824;SDS011;43912;44.188;21.094;2022-07-06T11:43:33;6.45;;;2.05;;
57824;SDS011;43912;44.188;21.094;2022-07-06T11:45:59;6.53;;;2.15;;
57824;SDS011;43912;44.188;21.094;2022-07-06T11:48:27;5.45;;;2.08;;
57824;SDS011;43912;44.188;21.094;2022-07-06T11:51:03;5.40;;;2.05;;
57824;SDS011;43912;44.188;21.094;2022-07-06T11:53:30;6.45;;;2.20;;
57824;SDS011;43912;44.188;21.094;2022-07-06T11:55:56;5.90;;;2.20;;
57824;SDS011;43912;44.188;21.094;2022-07-06T11:58:27;6.15;;;2.10;;
57824;SDS011;43912;44.188;21.094;2022-07-06T12:01:04;9.07;;;2.55;;
57824;SDS011;43912;44.188;21.094;2022-07-06T12:03:31;7.00;;;2.35;;
57824;SDS011;43912;44.188;21.094;2022-07-06T12:05:58;5.90;;;2.20;;
57824;SDS011;43912;44.188;21.094;2022-07-06T12:08:24;5.97;;;2.13;;
57824;SDS011;43912;44.188;21.094;2022-07-06T12:10:50;5.38;;;2.03;;
57824;SDS011;43912;44.188;21.094;2022-07-06T12:13:18;6.18;;;2.47;;
57824;SDS011;43912;44.188;21.094;2022-07-06T12:15:44;6.07;;;1.80;;
57824;SDS011;43912;44.188;21.094;2022-07-06T12:18:10;5.30;;;2.10;;
57824;SDS011;43912;44.188;21.094;2022-07-06T12:20:36;5.63;;;2.20;;
57824;SDS011;43912;44.188;21.094;2022-07-06T12:23:03;8.05;;;2.25;;
57824;SDS011;43912;44.188;21.094;2022-07-06T12:25:30;6.53;;;2.15;;
57824;SDS011;43912;44.188;21.094;2022-07-06T12:27:56;6.22;;;2.30;;
57824;SDS011;43912;44.188;21.094;2022-07-06T12:30:23;5.40;;;2.20;;
57824;SDS011;43912;44.188;21.094;2022-07-06T12:35:34;6.75;;;2.50;;
57824;SDS011;43912;44.188;21.094;2022-07-06T12:38:00;6.10;;;2.40;;
57824;SDS011;43912;44.188;21.094;2022-07-06T12:40:26;6.85;;;2.40;;
57824;SDS011;43912;44.188;21.094;2022-07-06T12:42:53;5.75;;;2.67;;
57824;SDS011;43912;44.188;21.094;2022-07-06T12:45:19;7.07;;;2.38;;
57824;SDS011;43912;44.188;21.094;2022-07-06T12:50:30;6.18;;;2.33;;
57824;SDS011;43912;44.188;21.094;2022-07-06T12:52:57;5.20;;;2.30;;
57824;SDS011;43912;44.188;21.094;2022-07-06T12:55:30;5.85;;;2.72;;
57824;SDS011;43912;44.188;21.094;2022-07-06T12:57:57;6.20;;;2.90;;
57824;SDS011;43912;44.188;21.094;2022-07-06T13:00:24;7.90;;;2.58;;
57824;SDS011;43912;44.188;21.094;2022-07-06T13:02:51;6.13;;;2.33;;
57824;SDS011;43912;44.188;21.094;2022-07-06T13:05:24;7.88;;;2.78;;
57824;SDS011;43912;44.188;21.094;2022-07-06T13:07:55;5.65;;;2.90;;
57824;SDS011;43912;44.188;21.094;2022-07-06T13:10:22;6.22;;;3.03;;
57824;SDS011;43912;44.188;21.094;2022-07-06T13:12:48;5.75;;;2.70;;
57824;SDS011;43912;44.188;21.094;2022-07-06T13:15:15;5.80;;;2.60;;
57824;SDS011;43912;44.188;21.094;2022-07-06T13:17:41;6.90;;;3.03;;
57824;SDS011;43912;44.188;21.094;2022-07-06T13:20:09;6.53;;;3.40;;
57824;SDS011;43912;44.188;21.094;2022-07-06T13:22:36;7.93;;;2.90;;
57824;SDS011;43912;44.188;21.094;2022-07-06T13:25:02;6.55;;;2.95;;
57824;SDS011;43912;44.188;21.094;2022-07-06T13:27:28;7.85;;;2.50;;
57824;SDS011;43912;44.188;21.094;2022-07-06T13:29:55;7.15;;;2.88;;
57824;SDS011;43912;44.188;21.094;2022-07-06T13:32:21;7.65;;;2.97;;
57824;SDS011;43912;44.188;21.094;2022-07-06T13:34:47;7.75;;;2.80;;
57824;SDS011;43912;44.188;21.094;2022-07-06T13:37:13;5.50;;;2.80;;
57824;SDS011;43912;44.188;21.094;2022-07-06T13:39:40;6.97;;;2.90;;
57824;SDS011;43912;44.188;21.094;2022-07-06T13:42:06;7.20;;;3.33;;
57824;SDS011;43912;44.188;21.094;2022-07-06T13:44:34;6.97;;;2.88;;
57824;SDS011;43912;44.188;21.094;2022-07-06T13:47:00;5.70;;;2.85;;
57824;SDS011;43912;44.188;21.094;2022-07-06T13:49:27;5.53;;;2.10;;
57824;SDS011;43912;44.188;21.094;2022-07-06T13:51:53;6.90;;;2.05;;
57824;SDS011;43912;44.188;21.094;2022-07-06T13:54:20;7.07;;;2.15;;
57824;SDS011;43912;44.188;21.094;2022-07-06T13:56:46;5.82;;;2.13;;
57824;SDS011;43912;44.188;21.094;2022-07-06T13:59:12;5.40;;;1.90;;
57824;SDS011;43912;44.188;21.094;2022-07-06T14:01:38;9.23;;;1.88;;
57824;SDS011;43912;44.188;21.094;2022-07-06T14:04:04;5.82;;;1.90;;
57824;SDS011;43912;44.188;21.094;2022-07-06T14:06:31;6.30;;;1.73;;
57824;SDS011;43912;44.188;21.094;2022-07-06T14:08:58;5.93;;;1.67;;
57824;SDS011;43912;44.188;21.094;2022-07-06T14:11:24;4.70;;;1.50;;
57824;SDS011;43912;44.188;21.094;2022-07-06T14:13:50;6.40;;;1.60;;
57824;SDS011;43912;44.188;21.094;2022-07-06T14:16:16;7.25;;;2.15;;
57824;SDS011;43912;44.188;21.094;2022-07-06T14:18:42;5.97;;;2.08;;
57824;SDS011;43912;44.188;21.094;2022-07-06T14:21:08;5.25;;;1.55;;
57824;SDS011;43912;44.188;21.094;2022-07-06T14:23:35;5.03;;;1.50;;
57824;SDS011;43912;44.188;21.094;2022-07-06T14:26:01;5.80;;;2.20;;
57824;SDS011;43912;44.188;21.094;2022-07-06T14:28:27;4.70;;;1.50;;
57824;SDS011;43912;44.188;21.094;2022-07-06T14:30:53;6.00;;;2.00;;
57824;SDS011;43912;44.188;21.094;2022-07-06T14:33:19;8.27;;;4.57;;
57824;SDS011;43912;44.188;21.094;2022-07-06T14:35:46;6.43;;;1.67;;
57824;SDS011;43912;44.188;21.094;2022-07-06T14:38:13;5.28;;;1.75;;
57824;SDS011;43912;44.188;21.094;2022-07-06T14:40:39;6.00;;;1.25;;
57824;SDS011;43912;44.188;21.094;2022-07-06T14:43:05;5.47;;;1.75;;
57824;SDS011;43912;44.188;21.094;2022-07-06T14:45:31;7.22;;;2.10;;
57824;SDS011;43912;44.188;21.094;2022-07-06T14:47:58;7.38;;;1.83;;
57824;SDS011;43912;44.188;21.094;2022-07-06T14:50:24;8.82;;;1.88;;